Terminal Aerodrome Forecast
Issued by NWS

Home | Current Version | Previous Version | Text Only | Print | Product List | Glossary On
Versions: 1 2 3 4 5 6 7 8 9 10 11 12 13 14 15 16 17 18 19 20 21 22 23 24 25 26 27 28 29 30 31 32
775
FTUS43 KGRB 181734
TAFATW
TAF
KATW 181734Z 1818/1918 06011G19KT P6SM OVC020
      TEMPO 1818/1821 OVC015
     FM182100 02013G19KT 6SM -RASN OVC013
     FM190100 01012G19KT P6SM BKN020 WS015/04035KT
     FM190300 36011G17KT P6SM SCT120 WS018/03040KT
     FM190900 35011G18KT P6SM SKC=

USA.gov is the U.S. government's official web portal to all federal, state and local government web resources and services.